Time;durP1;ratioP1;P1;durP2;ratioP2;P2;SDS_P1;SDS_P2;PMS_P1;PMS_P2;Temp;Humidity;BMP_temperature;BMP_pressure;BME280_temperature;BME280_humidity;BME280_pressure;Samples;Min_cycle;Max_cycle;Signal;HPM_P1;HPM_P2
2023/03/10 00:00:32;;;;;;;3.97;3.60;;;;;;;9.65;81.05;94827.75;5093432;28;20177;-62
2023/03/10 00:02:58;;;;;;;4.70;4.10;;;;;;;9.62;80.50;94823.06;5093433;28;20233;-60
2023/03/10 00:05:23;;;;;;;5.37;4.57;;;;;;;9.66;80.65;94818.06;5093621;28;20638;-62
2023/03/10 00:07:49;;;;;;;4.13;3.83;;;;;;;9.62;80.63;94814.44;5093107;28;20239;-62
2023/03/10 00:10:15;;;;;;;4.20;3.80;;;;;;;9.69;80.69;94796.63;5074508;28;20580;-62
2023/03/10 00:12:41;;;;;;;4.57;4.07;;;;;;;9.62;80.97;94794.28;5076480;28;20182;-62
2023/03/10 00:15:08;;;;;;;5.63;4.03;;;;;;;9.60;81.31;94781.47;5093171;28;20630;-62
2023/03/10 00:17:34;;;;;;;4.53;4.23;;;;;;;9.60;81.68;94778.84;5092749;28;20279;-61
2023/03/10 00:19:59;;;;;;;6.23;4.63;;;;;;;9.59;81.41;94768.66;5092977;28;20211;-61
2023/03/10 00:22:24;;;;;;;4.70;4.33;;;;;;;9.48;81.31;94769.75;5083971;28;20545;-62
2023/03/10 00:24:50;;;;;;;6.20;4.73;;;;;;;9.55;81.11;94770.25;5092607;28;20215;-61
2023/03/10 00:27:15;;;;;;;4.50;4.10;;;;;;;9.57;80.71;94768.94;5093215;28;20196;-62
2023/03/10 00:29:41;;;;;;;5.30;4.83;;;;;;;9.58;80.80;94761.88;5093292;28;20212;-62
2023/03/10 00:32:06;;;;;;;4.40;4.10;;;;;;;9.51;81.92;94756.94;5091956;28;20255;-63
2023/03/10 00:34:32;;;;;;;4.93;4.53;;;;;;;9.58;82.05;94746.94;5074508;28;20260;-62
2023/03/10 00:37:00;;;;;;;4.53;4.23;;;;;;;9.58;83.25;94741.72;5092781;28;20183;-62
2023/03/10 00:39:26;;;;;;;4.17;3.87;;;;;;;9.57;84.48;94742.00;5092274;28;20184;-62
2023/03/10 00:41:51;;;;;;;3.73;3.43;;;;;;;9.47;85.28;94736.84;5092665;28;20686;-62
2023/03/10 00:44:16;;;;;;;3.20;3.00;;;;;;;9.40;87.14;94728.50;5092753;28;20214;-62
2023/03/10 00:46:42;;;;;;;4.20;3.90;;;;;;;9.40;87.75;94720.66;5087437;28;20241;-62
2023/03/10 00:49:13;;;;;;;4.30;4.00;;;;;;;9.51;87.57;94717.72;5072448;28;20249;-62
2023/03/10 00:51:38;;;;;;;4.60;4.17;;;;;;;9.45;88.46;94718.00;5072700;28;20181;-62
2023/03/10 00:54:03;;;;;;;5.23;3.90;;;;;;;9.50;88.44;94718.75;5072223;28;20538;-62
2023/03/10 00:56:29;;;;;;;3.30;3.10;;;;;;;9.45;88.80;94707.56;5072368;28;20212;-62
2023/03/10 00:58:57;;;;;;;4.13;3.10;;;;;;;9.44;88.70;94704.16;5054535;28;20277;-62
2023/03/10 01:01:29;;;;;;;3.00;2.80;;;;;;;9.40;88.83;94699.75;5072518;28;20212;-62
2023/03/10 01:03:57;;;;;;;3.43;3.13;;;;;;;9.33;89.55;94689.56;5072190;28;20177;-62
2023/03/10 01:06:23;;;;;;;4.27;2.90;;;;;;;9.39;88.73;94688.50;5072594;28;20212;-62
2023/03/10 01:08:49;;;;;;;4.60;3.20;;;;;;;9.37;89.49;94687.19;5073136;28;20251;-62
2023/03/10 01:11:17;;;;;;;3.03;2.73;;;;;;;9.41;89.66;94680.38;5075758;28;20189;-62
2023/03/10 01:13:43;;;;;;;3.00;2.80;;;;;;;9.39;89.67;94680.66;5076255;28;20201;-62
2023/03/10 01:16:09;;;;;;;4.17;3.00;;;;;;;9.37;90.50;94681.97;5076041;28;20205;-63
2023/03/10 01:18:34;;;;;;;3.40;3.10;;;;;;;9.39;90.84;94682.47;5075506;28;20277;-62
2023/03/10 01:20:59;;;;;;;3.40;3.10;;;;;;;9.35;90.95;94677.03;5074623;28;20205;-62
2023/03/10 01:23:26;;;;;;;3.53;3.33;;;;;;;9.27;91.53;94671.56;5075806;28;20181;-62
2023/03/10 01:25:52;;;;;;;3.53;2.90;;;;;;;9.30;91.17;94666.59;5076276;28;20183;-62
2023/03/10 01:28:18;;;;;;;3.50;3.30;;;;;;;9.27;91.01;94680.19;5076486;28;20197;-62
2023/03/10 01:30:44;;;;;;;4.37;3.23;;;;;;;9.27;91.34;94663.72;5076064;28;20165;-62
2023/03/10 01:33:11;;;;;;;3.67;3.43;;;;;;;9.23;91.78;94660.09;5075515;28;20174;-62
2023/03/10 01:35:37;;;;;;;4.37;3.83;;;;;;;9.30;90.72;94668.44;5075877;28;20193;-62
2023/03/10 01:38:03;;;;;;;3.87;3.60;;;;;;;9.27;90.94;94671.56;5075468;28;20212;-62
2023/03/10 01:40:29;;;;;;;3.97;3.57;;;;;;;9.34;90.30;94665.00;5075554;28;20184;-62
2023/03/10 01:43:32;;;;;;;4.50;3.30;;;;;;;9.25;90.61;94664.00;5075867;28;20193;-62
2023/03/10 01:46:01;;;;;;;5.87;2.80;;;;;;;9.25;90.33;94661.38;5075499;28;20217;-62
2023/03/10 01:48:29;;;;;;;4.10;3.40;;;;;;;9.28;89.23;94644.38;5073451;28;20251;-62
2023/03/10 01:50:56;;;;;;;3.13;2.83;;;;;;;9.20;89.21;94648.34;5075744;28;20231;-62
2023/03/10 01:53:23;;;;;;;3.57;3.00;;;;;;;9.16;88.76;94648.09;5075625;28;20185;-62
2023/03/10 01:55:55;;;;;;;3.30;3.00;;;;;;;9.22;88.36;94651.47;5075498;28;20177;-62
2023/03/10 01:58:25;;;;;;;2.83;2.63;;;;;;;9.22;88.03;94651.47;5060035;28;20600;-62
2023/03/10 02:00:53;;;;;;;4.40;2.93;;;;;;;9.23;87.79;94652.25;5075444;28;20699;-62
2023/03/10 02:03:33;;;;;;;3.90;2.90;;;;;;;9.07;88.54;94647.13;5075530;28;20183;-62
2023/03/10 02:06:03;;;;;;;3.77;3.10;;;;;;;9.13;88.27;94643.44;5074280;28;20292;-62
2023/03/10 02:08:36;;;;;;;4.47;2.87;;;;;;;9.01;89.00;94636.97;5073711;28;20241;-62
2023/03/10 02:11:02;;;;;;;3.47;3.20;;;;;;;9.00;89.67;94638.78;5074475;28;20191;-62
2023/03/10 02:13:27;;;;;;;3.60;3.30;;;;;;;9.08;89.63;94629.59;5075402;28;20596;-62
2023/03/10 02:15:53;;;;;;;4.70;3.33;;;;;;;9.04;90.08;94633.78;5074989;28;20253;-62
2023/03/10 02:18:20;;;;;;;5.33;5.00;;;;;;;9.01;91.76;94622.06;5073992;28;20239;-62
2023/03/10 02:20:59;;;;;;;9.57;8.97;;;;;;;9.04;92.64;94633.78;5072443;28;20192;-61
2023/03/10 02:24:26;;;;;;;6.47;6.07;;;;;;;9.07;94.15;94620.19;5074840;28;20227;-62
2023/03/10 02:27:02;;;;;;;4.03;3.73;;;;;;;9.01;96.42;94616.06;4977717;28;20192;-62
2023/03/10 02:29:39;;;;;;;6.10;5.63;;;;;;;9.08;97.05;94622.53;5011313;28;20684;-61
2023/03/10 02:32:04;;;;;;;5.83;5.53;;;;;;;9.12;97.36;94622.78;5012905;28;20678;-61
2023/03/10 02:34:30;;;;;;;4.60;4.30;;;;;;;9.08;98.32;94624.38;5011227;28;20195;-61
2023/03/10 02:36:55;;;;;;;4.33;3.90;;;;;;;9.09;98.58;94618.09;4996172;28;20187;-62
2023/03/10 02:39:21;;;;;;;5.40;5.10;;;;;;;9.07;99.37;94622.81;5012085;28;20226;-61
2023/03/10 02:41:47;;;;;;;6.63;6.23;;;;;;;8.97;100.00;94612.44;5012645;28;20190;-61
2023/03/10 02:44:17;;;;;;;4.80;4.50;;;;;;;8.95;100.00;94619.75;5012557;28;20671;-61
2023/03/10 02:46:42;;;;;;;3.17;3.03;;;;;;;8.97;100.00;94615.03;5022944;28;20244;-61
2023/03/10 02:49:11;;;;;;;7.33;3.17;;;;;;;8.87;100.00;94623.69;5094599;28;20212;-61
2023/03/10 02:51:43;;;;;;;3.37;3.17;;;;;;;8.90;100.00;94620.56;5094621;28;20196;-62
2023/03/10 02:54:10;;;;;;;4.30;4.00;;;;;;;8.88;100.00;94621.84;5080390;28;20177;-62
2023/03/10 02:56:36;;;;;;;4.77;4.40;;;;;;;8.91;100.00;94614.28;5094578;28;20173;-62
2023/03/10 02:59:02;;;;;;;4.53;4.23;;;;;;;8.84;100.00;94615.63;5094765;28;20276;-61
2023/03/10 03:01:29;;;;;;;4.07;3.80;;;;;;;8.83;100.00;94608.81;5076117;28;20184;-61
2023/03/10 03:03:55;;;;;;;3.90;3.60;;;;;;;8.70;100.00;94592.69;5094351;28;20176;-61
2023/03/10 03:06:21;;;;;;;3.63;3.37;;;;;;;8.66;100.00;94599.50;5094312;28;20180;-61
2023/03/10 03:08:47;;;;;;;3.57;3.37;;;;;;;8.68;100.00;94594.81;5094102;28;20265;-61
2023/03/10 03:11:12;;;;;;;3.50;3.27;;;;;;;8.73;100.00;94594.78;5075333;28;20184;-62
2023/03/10 03:13:38;;;;;;;3.33;3.13;;;;;;;8.75;100.00;94594.47;5094080;28;20702;-62
2023/03/10 03:16:07;;;;;;;2.87;2.77;;;;;;;8.72;100.00;94600.25;5094128;28;20181;-62
2023/03/10 03:18:33;;;;;;;3.50;3.20;;;;;;;8.71;100.00;94603.91;5094088;28;20205;-62
2023/03/10 03:21:06;;;;;;;3.30;3.20;;;;;;;8.66;100.00;94599.50;5092214;28;20646;-62
2023/03/10 03:23:33;;;;;;;3.67;3.47;;;;;;;8.68;100.00;94594.81;5075944;28;20181;-62
2023/03/10 03:25:59;;;;;;;3.87;3.60;;;;;;;8.67;100.00;94608.91;5075901;28;20576;-61
2023/03/10 03:28:25;;;;;;;4.90;4.60;;;;;;;8.58;100.00;94599.28;5075696;28;20570;-62
2023/03/10 03:30:50;;;;;;;3.90;3.70;;;;;;;8.56;100.00;94596.94;5093012;28;20169;-61
2023/03/10 03:33:16;;;;;;;3.97;3.87;;;;;;;8.53;100.00;94592.22;5092723;28;20252;-62
2023/03/10 03:35:42;;;;;;;4.17;3.80;;;;;;;8.62;100.00;94589.88;5093765;28;20226;-62
2023/03/10 03:38:07;;;;;;;3.53;3.43;;;;;;;8.57;100.00;94582.84;5093168;28;20206;-62
2023/03/10 03:40:34;;;;;;;4.47;4.27;;;;;;;8.55;100.00;94586.75;5093718;28;20188;-61
2023/03/10 03:43:00;;;;;;;3.73;3.53;;;;;;;8.38;100.00;94584.47;5093320;28;20184;-62
2023/03/10 03:45:28;;;;;;;4.10;3.90;;;;;;;8.35;100.00;94582.41;5093798;28;20634;-62
2023/03/10 03:47:54;;;;;;;3.97;3.77;;;;;;;8.42;100.00;94579.47;5078365;28;20255;-61
2023/03/10 03:50:20;;;;;;;4.07;3.87;;;;;;;8.36;100.00;94583.19;5073958;28;20536;-62
2023/03/10 03:52:47;;;;;;;4.37;4.17;;;;;;;8.32;100.00;94580.31;5073450;28;20161;-62
2023/03/10 03:55:14;;;;;;;6.30;4.30;;;;;;;8.32;100.00;94575.88;5072196;28;20274;-62
2023/03/10 03:57:40;;;;;;;4.77;4.60;;;;;;;8.26;100.00;94579.50;5073061;28;20236;-62
2023/03/10 04:00:08;;;;;;;5.90;5.60;;;;;;;8.28;100.00;94574.03;5072325;28;20181;-61
2023/03/10 04:02:34;;;;;;;6.63;6.37;;;;;;;8.28;100.00;94558.38;5072901;28;20196;-62
2023/03/10 04:05:00;;;;;;;5.87;5.67;;;;;;;8.34;100.00;94555.50;5072691;28;20626;-62
2023/03/10 04:07:26;;;;;;;7.13;6.83;;;;;;;8.39;100.00;94557.31;5072840;28;20571;-62
2023/03/10 04:09:51;;;;;;;7.27;6.87;;;;;;;8.41;100.00;94560.44;5072460;28;20185;-61
2023/03/10 04:12:17;;;;;;;8.07;7.57;;;;;;;8.43;100.00;94558.34;5072824;28;20522;-61
2023/03/10 04:14:42;;;;;;;7.80;7.30;;;;;;;8.43;100.00;94565.38;5072972;28;20181;-61
2023/03/10 04:17:08;;;;;;;8.10;7.70;;;;;;;8.42;100.00;94554.16;5072962;28;20181;-61
2023/03/10 04:19:33;;;;;;;7.67;7.27;;;;;;;8.46;100.00;94547.38;5071199;28;20177;-62
2023/03/10 04:21:59;;;;;;;7.07;6.67;;;;;;;8.50;100.00;94547.63;5072671;28;20223;-61
2023/03/10 04:24:24;;;;;;;6.90;6.50;;;;;;;8.46;100.00;94554.44;5071576;28;20176;-63
2023/03/10 04:26:50;;;;;;;7.37;7.07;;;;;;;8.40;100.00;94556.28;5072468;28;20184;-62
2023/03/10 04:29:15;;;;;;;6.97;6.67;;;;;;;8.29;100.00;94558.13;5072664;28;20204;-61
2023/03/10 04:31:41;;;;;;;8.23;7.83;;;;;;;8.28;100.00;94540.09;5072454;28;20173;-62
2023/03/10 04:34:06;;;;;;;8.57;8.17;;;;;;;8.17;100.00;94549.03;5072239;28;20188;-62
2023/03/10 04:36:32;;;;;;;5.63;5.33;;;;;;;8.12;100.00;94552.44;5072567;28;20180;-62
2023/03/10 04:38:57;;;;;;;5.37;5.07;;;;;;;8.08;100.00;94543.56;5072323;28;20255;-62
2023/03/10 04:41:24;;;;;;;4.30;4.10;;;;;;;8.10;100.00;94549.28;5072584;28;20192;-62
2023/03/10 04:43:49;;;;;;;4.40;4.20;;;;;;;8.07;100.00;94547.22;5072417;28;20191;-62
2023/03/10 04:46:15;;;;;;;3.67;3.57;;;;;;;8.08;100.00;94545.41;5072497;28;20255;-62
2023/03/10 04:48:40;;;;;;;3.50;3.37;;;;;;;8.17;100.00;94543.81;5071305;28;20232;-62
2023/03/10 04:51:09;;;;;;;3.43;3.17;;;;;;;8.21;100.00;94539.59;5092585;28;20251;-62
2023/03/10 04:53:35;;;;;;;3.43;3.30;;;;;;;8.27;100.00;94535.94;5092483;28;20255;-62
2023/03/10 04:56:02;;;;;;;4.33;4.03;;;;;;;8.30;100.00;94535.44;5092499;28;20662;-62
2023/03/10 04:58:28;;;;;;;4.47;4.33;;;;;;;8.32;100.00;94544.56;5092637;28;20208;-61
2023/03/10 05:00:54;;;;;;;6.53;6.23;;;;;;;8.39;100.00;94539.06;5092846;28;20255;-62
2023/03/10 05:03:19;;;;;;;4.87;4.47;;;;;;;8.45;100.00;94529.38;5092624;28;20563;-61
2023/03/10 05:05:45;;;;;;;5.03;4.83;;;;;;;8.40;100.00;94516.34;5092498;28;20291;-62
2023/03/10 05:08:10;;;;;;;6.33;5.93;;;;;;;8.34;100.00;94515.59;5092260;28;20216;-62
2023/03/10 05:10:39;;;;;;;5.53;5.23;;;;;;;8.31;100.00;94514.28;5091782;28;20230;-62
2023/03/10 05:13:04;;;;;;;5.23;4.83;;;;;;;8.22;100.00;94522.91;5092633;28;20192;-61
2023/03/10 05:15:33;;;;;;;4.37;4.17;;;;;;;8.09;100.00;94516.44;5074055;28;20207;-62
2023/03/10 05:17:59;;;;;;;3.77;3.57;;;;;;;8.08;100.00;94514.09;5092193;28;20209;-62
2023/03/10 05:20:24;;;;;;;4.13;3.83;;;;;;;8.04;100.00;94510.44;5091662;28;20238;-62
2023/03/10 05:22:50;;;;;;;3.57;3.27;;;;;;;7.97;100.00;94509.97;5074145;28;20184;-62
2023/03/10 05:25:15;;;;;;;3.90;3.70;;;;;;;7.89;100.00;94501.63;5091759;28;20256;-62
2023/03/10 05:27:40;;;;;;;4.13;3.83;;;;;;;7.85;100.00;94497.22;5073777;28;20226;-62
2023/03/10 05:30:07;;;;;;;4.50;4.10;;;;;;;7.89;100.00;94491.19;5091212;28;20212;-62
2023/03/10 05:32:34;;;;;;;4.13;3.93;;;;;;;7.81;100.00;94486.50;5091519;28;20237;-61
2023/03/10 05:35:00;;;;;;;4.30;4.00;;;;;;;7.83;100.00;94491.47;5092094;28;20263;-62
2023/03/10 05:37:26;;;;;;;5.03;4.30;;;;;;;7.82;100.00;94489.91;5091928;28;20196;-62
2023/03/10 05:39:51;;;;;;;4.27;4.03;;;;;;;7.78;100.00;94489.66;5091889;28;20183;-62
2023/03/10 05:42:17;;;;;;;4.53;4.23;;;;;;;7.76;100.00;94483.94;5092460;28;20161;-60
2023/03/10 05:44:42;;;;;;;4.70;4.40;;;;;;;7.79;100.00;94480.03;5091585;28;20551;-62
2023/03/10 05:47:08;;;;;;;3.90;3.60;;;;;;;7.91;100.00;94491.69;5083144;28;20251;-62
2023/03/10 05:49:33;;;;;;;3.60;3.40;;;;;;;8.02;100.00;94482.03;5071833;28;20185;-62
2023/03/10 05:51:59;;;;;;;3.67;3.37;;;;;;;8.14;100.00;94492.91;5071648;28;20254;-62
2023/03/10 05:54:24;;;;;;;4.10;3.90;;;;;;;8.18;100.00;94482.75;5071682;28;20188;-61
2023/03/10 05:56:50;;;;;;;4.50;4.30;;;;;;;8.21;100.00;94485.59;5075561;28;20172;-62
2023/03/10 05:59:16;;;;;;;3.70;3.50;;;;;;;8.19;100.00;94473.88;5074683;28;20220;-62
2023/03/10 06:01:41;;;;;;;4.53;3.57;;;;;;;8.26;100.00;94467.31;5073967;28;20691;-62
2023/03/10 06:04:07;;;;;;;4.03;3.60;;;;;;;8.37;100.00;94467.28;5075406;28;20166;-61
2023/03/10 06:06:32;;;;;;;5.17;3.47;;;;;;;8.36;100.00;94456.06;5074977;28;20195;-62
2023/03/10 06:08:58;;;;;;;5.97;3.40;;;;;;;8.38;100.00;94455.78;5074373;28;20583;-62
2023/03/10 06:11:23;;;;;;;11.47;10.77;;;;;;;8.28;100.00;94461.81;5075421;28;20181;-62
2023/03/10 06:13:49;;;;;;;4.90;4.47;;;;;;;8.19;100.00;94445.94;5075047;28;20173;-62
2023/03/10 06:16:16;;;;;;;3.57;3.37;;;;;;;8.14;100.00;94451.19;5057090;28;20173;-62
2023/03/10 06:18:41;;;;;;;4.60;3.40;;;;;;;8.01;100.00;94449.16;5072600;28;20197;-62
2023/03/10 06:21:10;;;;;;;3.57;3.37;;;;;;;7.95;100.00;94447.63;5075062;28;20576;-62
2023/03/10 06:23:36;;;;;;;4.63;3.47;;;;;;;7.88;100.00;94470.59;5074902;28;20248;-62
2023/03/10 06:26:06;;;;;;;6.57;6.17;;;;;;;7.76;100.00;94462.28;5074952;28;20169;-62
2023/03/10 06:28:34;;;;;;;3.60;3.33;;;;;;;7.72;100.00;94459.44;5074830;28;20251;-61
2023/03/10 06:31:02;;;;;;;5.60;5.20;;;;;;;7.70;100.00;94461.53;5074571;28;20227;-61
2023/03/10 06:33:30;;;;;;;4.03;3.83;;;;;;;7.70;100.00;94463.34;5074158;28;20256;-61
2023/03/10 06:35:55;;;;;;;3.63;3.33;;;;;;;7.61;100.00;94442.25;5075191;28;20173;-62
2023/03/10 06:38:22;;;;;;;3.10;2.97;;;;;;;7.61;100.00;94425.84;5059578;28;20264;-62
2023/03/10 06:40:48;;;;;;;3.80;3.50;;;;;;;7.55;100.00;94412.03;5080437;28;20177;-62
2023/03/10 06:43:14;;;;;;;3.20;3.00;;;;;;;7.63;100.00;94406.28;5075002;28;20177;-62
2023/03/10 06:45:41;;;;;;;3.17;3.03;;;;;;;7.66;100.00;94408.34;5074488;28;20657;-62
2023/03/10 06:48:06;;;;;;;2.90;2.80;;;;;;;7.69;100.00;94405.19;5071406;28;20233;-61
2023/03/10 06:50:32;;;;;;;3.77;3.67;;;;;;;7.77;100.00;94420.31;5074753;28;20173;-62
2023/03/10 06:52:57;;;;;;;3.00;2.90;;;;;;;7.68;100.00;94416.69;5074331;28;20517;-62
2023/03/10 06:55:23;;;;;;;3.57;3.47;;;;;;;7.62;100.00;94399.50;5074074;28;20177;-62
2023/03/10 06:57:48;;;;;;;3.73;3.50;;;;;;;7.67;100.00;94409.91;5074058;28;20232;-61
2023/03/10 07:00:14;;;;;;;3.83;3.40;;;;;;;7.70;100.00;94392.94;5074543;28;20181;-62
2023/03/10 07:02:41;;;;;;;3.20;3.10;;;;;;;7.80;100.00;94400.75;5074157;28;20629;-62
2023/03/10 07:05:10;;;;;;;3.20;3.00;;;;;;;8.09;100.00;94408.69;5074219;28;20226;-63
2023/03/10 07:07:36;;;;;;;3.23;3.13;;;;;;;8.41;100.00;94405.69;5074186;28;20201;-61
2023/03/10 07:10:02;;;;;;;4.70;4.50;;;;;;;8.58;100.00;94401.63;5084103;28;20200;-62
2023/03/10 07:12:27;;;;;;;4.37;4.17;;;;;;;8.49;100.00;94405.09;5065876;28;20184;-62
2023/03/10 07:14:53;;;;;;;3.97;3.67;;;;;;;8.54;100.00;94398.00;5074276;28;20184;-61
2023/03/10 07:17:18;;;;;;;3.77;3.57;;;;;;;8.67;100.00;94401.81;5073247;28;20275;-61
2023/03/10 07:19:44;;;;;;;3.10;2.93;;;;;;;8.60;100.00;94390.91;5071900;28;20577;-61
2023/03/10 07:22:09;;;;;;;3.83;3.63;;;;;;;8.65;100.00;94396.88;5073837;28;20173;-62
2023/03/10 07:24:35;;;;;;;4.23;4.03;;;;;;;8.81;100.00;94400.13;5073822;28;20169;-61
2023/03/10 07:27:01;;;;;;;5.50;5.20;;;;;;;8.90;100.00;94408.19;5072156;28;20173;-57
2023/03/10 07:29:27;;;;;;;6.97;6.50;;;;;;;9.02;100.00;94406.78;5073323;28;20206;-59
2023/03/10 07:31:52;;;;;;;4.27;4.07;;;;;;;8.97;100.00;94406.03;5073981;28;20185;-56
2023/03/10 07:34:18;;;;;;;35.77;33.90;;;;;;;9.13;100.00;94413.47;5072234;28;20230;-58
2023/03/10 07:36:43;;;;;;;4.20;3.67;;;;;;;9.11;100.00;94433.06;5073219;28;20216;-59
2023/03/10 07:39:09;;;;;;;3.23;3.13;;;;;;;8.98;100.00;94439.69;5073405;28;20561;-58
2023/03/10 07:41:35;;;;;;;3.93;3.50;;;;;;;9.13;100.00;94434.38;5073485;28;20181;-62
2023/03/10 07:44:00;;;;;;;5.77;5.37;;;;;;;9.09;100.00;94425.50;5073357;28;20234;-60
2023/03/10 07:46:26;;;;;;;4.60;4.40;;;;;;;9.86;100.00;94426.28;5072133;28;20181;-68
2023/03/10 07:48:52;;;;;;;6.77;6.37;;;;;;;9.38;100.00;94430.72;5092950;28;20248;-58
2023/03/10 07:51:18;;;;;;;3.87;3.33;;;;;;;9.27;100.00;94434.50;5093809;28;20207;-57
2023/03/10 07:53:44;;;;;;;7.40;7.10;;;;;;;9.27;100.00;94424.03;5073895;28;20200;-58
2023/03/10 07:56:11;;;;;;;3.67;3.47;;;;;;;9.26;100.00;94440.00;5092651;28;20541;-58
2023/03/10 07:58:37;;;;;;;3.93;3.10;;;;;;;9.23;100.00;94443.94;5093095;28;20617;-57
2023/03/10 08:01:04;;;;;;;6.07;5.67;;;;;;;9.19;100.00;94441.09;5091533;28;20289;-55
2023/03/10 08:03:30;;;;;;;6.33;5.03;;;;;;;9.21;100.00;94435.59;5093057;28;20249;-58
2023/03/10 08:05:58;;;;;;;2.77;2.67;;;;;;;9.22;100.00;94446.81;5091764;28;20164;-59
2023/03/10 08:08:24;;;;;;;2.80;2.53;;;;;;;9.22;100.00;94463.28;5092066;28;20574;-56
2023/03/10 08:10:58;;;;;;;5.43;5.13;;;;;;;9.14;100.00;94471.72;5087963;28;20685;-59
2023/03/10 08:13:23;;;;;;;6.10;5.80;;;;;;;8.77;100.00;94475.66;5093324;28;20703;-58
2023/03/10 08:15:49;;;;;;;5.60;5.30;;;;;;;8.43;100.00;94479.25;5092419;28;20306;-57
2023/03/10 08:18:14;;;;;;;5.23;5.03;;;;;;;8.22;100.00;94468.91;5089474;28;20275;-57
2023/03/10 08:20:40;;;;;;;5.73;5.43;;;;;;;7.93;100.00;94468.75;5074410;28;20184;-58
2023/03/10 08:23:05;;;;;;;6.17;5.87;;;;;;;7.73;100.00;94471.44;5091020;28;20183;-58
2023/03/10 08:25:30;;;;;;;6.03;5.83;;;;;;;7.70;100.00;94463.34;5091483;28;20168;-56
2023/03/10 08:27:56;;;;;;;3.27;3.07;;;;;;;7.71;100.00;94451.88;5092403;28;20291;-56
2023/03/10 08:30:22;;;;;;;3.93;3.83;;;;;;;7.73;100.00;94455.78;5092646;28;20560;-58
2023/03/10 08:32:47;;;;;;;3.30;3.20;;;;;;;7.67;100.00;94467.28;5091903;28;20191;-58
2023/03/10 08:35:13;;;;;;;3.10;2.90;;;;;;;7.69;100.00;94469.63;5074116;28;20184;-55
2023/03/10 08:37:38;;;;;;;2.90;2.80;;;;;;;7.74;100.00;94474.81;5091943;28;20188;-57
2023/03/10 08:40:06;;;;;;;3.33;2.93;;;;;;;7.77;100.00;94480.28;5092426;28;20655;-55
2023/03/10 08:42:35;;;;;;;3.07;2.97;;;;;;;7.75;100.00;94482.34;5091166;28;20219;-57
2023/03/10 08:45:00;;;;;;;3.50;3.23;;;;;;;7.79;100.00;94470.38;5092540;28;20176;-58
2023/03/10 08:47:26;;;;;;;3.40;3.20;;;;;;;7.75;100.00;94465.94;5080816;28;20233;-58
2023/03/10 08:49:51;;;;;;;2.83;2.63;;;;;;;7.74;100.00;94478.22;5071876;28;20173;-56
2023/03/10 08:52:17;;;;;;;2.97;2.70;;;;;;;7.79;100.00;94475.59;5072119;28;20177;-52
2023/03/10 08:54:42;;;;;;;3.50;3.20;;;;;;;7.92;100.00;94475.00;5072286;28;20174;-56
2023/03/10 08:57:08;;;;;;;3.60;3.03;;;;;;;8.21;100.00;94485.59;5072070;28;20513;-55
2023/03/10 08:59:33;;;;;;;3.77;3.57;;;;;;;8.22;100.00;94487.16;5071868;28;20218;-55
2023/03/10 09:01:59;;;;;;;2.93;2.73;;;;;;;8.29;100.00;94499.91;5071626;28;20176;-56
2023/03/10 09:04:24;;;;;;;2.50;2.40;;;;;;;8.28;100.00;94508.78;5071908;28;20181;-56
2023/03/10 09:06:50;;;;;;;3.17;2.97;;;;;;;8.53;100.00;94511.31;5071958;28;20177;-54
2023/03/10 09:09:16;;;;;;;2.77;2.67;;;;;;;8.60;100.00;94519.63;5071082;28;20726;-55
2023/03/10 09:11:42;;;;;;;3.10;2.90;;;;;;;8.60;100.00;94518.84;5054872;28;20260;-55
2023/03/10 09:14:08;;;;;;;3.33;3.10;;;;;;;8.76;100.00;94518.47;5054176;28;20215;-56
2023/03/10 09:16:34;;;;;;;2.73;2.53;;;;;;;8.85;100.00;94518.72;5072139;28;20173;-56
2023/03/10 09:19:00;;;;;;;2.80;2.70;;;;;;;9.16;100.00;94517.44;5069671;28;20275;-56
2023/03/10 09:21:27;;;;;;;2.70;2.40;;;;;;;9.66;100.00;94514.66;5071973;28;20280;-55
2023/03/10 09:23:53;;;;;;;3.47;3.17;;;;;;;10.01;100.00;94509.06;5065307;28;20629;-53
2023/03/10 09:26:19;;;;;;;4.07;2.63;;;;;;;10.28;100.00;94511.16;5073442;28;20187;-54
2023/03/10 09:28:46;;;;;;;3.70;3.50;;;;;;;10.47;100.00;94509.34;5072279;28;20247;-57
2023/03/10 09:31:17;;;;;;;3.53;3.23;;;;;;;10.54;100.00;94506.38;5075255;28;20203;-58
2023/03/10 09:33:43;;;;;;;4.40;3.13;;;;;;;10.74;100.00;94503.50;5074926;28;20189;-56
2023/03/10 09:36:08;;;;;;;3.37;3.07;;;;;;;10.93;100.00;94501.63;5078656;28;20178;-55
2023/03/10 09:38:34;;;;;;;4.60;4.20;;;;;;;11.14;100.00;94505.53;5075292;28;20692;-55
2023/03/10 09:41:30;;;;;;;3.47;3.17;;;;;;;11.03;100.00;94512.00;5075568;28;20181;-52
2023/03/10 09:44:11;;;;;;;3.40;3.23;;;;;;;10.95;100.00;94507.38;5075606;28;20189;-59
2023/03/10 09:47:08;;;;;;;6.30;4.60;;;;;;;10.80;100.00;94515.47;5074932;28;20188;-60
2023/03/10 09:49:38;;;;;;;5.23;4.80;;;;;;;10.66;100.00;94507.53;5078426;28;20242;-58
2023/03/10 09:52:46;;;;;;;5.80;5.30;;;;;;;10.86;100.00;94506.47;5095605;28;20187;-58
2023/03/10 09:55:21;;;;;;;4.73;4.43;;;;;;;10.71;100.00;94501.44;5029670;28;20249;-58
2023/03/10 09:57:53;;;;;;;3.40;3.17;;;;;;;10.62;100.00;94516.22;5078676;28;20322;-56
2023/03/10 10:00:28;;;;;;;8.17;7.77;;;;;;;10.66;100.00;94506.72;5095189;28;20244;-56
2023/03/10 10:03:03;;;;;;;8.33;7.80;;;;;;;10.73;100.00;94505.34;5095473;28;20168;-57
2023/03/10 10:05:32;;;;;;;5.73;4.10;;;;;;;10.64;100.00;94506.25;5079570;28;20164;-59
2023/03/10 10:08:01;;;;;;;6.80;6.20;;;;;;;10.80;100.00;94511.00;5094705;28;20204;-59
2023/03/10 10:10:30;;;;;;;4.23;3.93;;;;;;;10.65;100.00;94508.56;5095244;28;20176;-57
2023/03/10 10:13:02;;;;;;;5.27;4.97;;;;;;;10.72;100.00;94511.63;5095413;28;20175;-56
2023/03/10 10:15:30;;;;;;;7.20;6.80;;;;;;;10.58;100.00;94516.03;5060652;28;20172;-58
2023/03/10 10:18:05;;;;;;;8.33;7.73;;;;;;;10.69;100.00;94503.56;5090734;28;20283;-57
2023/03/10 10:20:50;;;;;;;8.17;7.47;;;;;;;10.49;100.00;94514.28;5092710;28;20655;-58
2023/03/10 10:23:21;;;;;;;10.17;9.23;;;;;;;10.50;100.00;94508.78;5095333;28;20165;-58
2023/03/10 10:25:47;;;;;;;3.23;3.03;;;;;;;10.62;100.00;94503.13;5095065;28;20251;-57
2023/03/10 10:28:37;;;;;;;4.20;3.67;;;;;;;10.70;100.00;94498.03;5094567;28;20318;-56
2023/03/10 10:31:12;;;;;;;4.17;3.90;;;;;;;10.42;100.00;94509.44;5095135;28;20279;-57
2023/03/10 10:34:17;;;;;;;3.80;3.60;;;;;;;10.39;100.00;94504.72;5093958;28;20545;-58
2023/03/10 10:36:50;;;;;;;4.27;4.00;;;;;;;10.62;100.00;94493.44;5094509;28;20185;-54
2023/03/10 10:39:27;;;;;;;5.80;5.40;;;;;;;10.65;100.00;94502.56;5076644;28;20192;-55
2023/03/10 10:41:53;;;;;;;6.50;6.10;;;;;;;10.71;100.00;94490.94;5094437;28;20181;-56
2023/03/10 10:44:19;;;;;;;5.17;4.87;;;;;;;10.48;100.00;94497.78;5094533;28;20184;-58
2023/03/10 10:46:53;;;;;;;5.00;4.60;;;;;;;10.12;100.00;94496.66;5088468;28;20391;-57
2023/03/10 10:49:22;;;;;;;4.17;3.77;;;;;;;9.85;100.00;94500.63;5073853;28;20669;-55
2023/03/10 10:52:16;;;;;;;3.27;3.07;;;;;;;9.90;100.00;94497.16;5056250;28;20208;-56
2023/03/10 10:54:43;;;;;;;2.60;2.40;;;;;;;10.08;100.00;94495.66;5059233;28;20707;-57
2023/03/10 10:57:20;;;;;;;2.67;2.50;;;;;;;10.27;100.00;94493.88;5074209;28;20184;-58
2023/03/10 10:59:46;;;;;;;2.50;2.33;;;;;;;10.48;100.00;94484.69;5074111;28;20184;-57
2023/03/10 11:02:29;;;;;;;9.67;9.17;;;;;;;10.63;100.00;94504.69;5074525;28;20560;-58
2023/03/10 11:05:12;;;;;;;5.27;4.97;;;;;;;10.73;100.00;94494.84;5074216;28;20181;-55
2023/03/10 11:07:37;;;;;;;3.87;3.60;;;;;;;10.80;100.00;94491.88;5073876;28;20746;-54
2023/03/10 11:10:31;;;;;;;3.90;3.50;;;;;;;10.86;100.00;94488.13;5055514;28;20189;-57
2023/03/10 11:12:57;;;;;;;4.23;3.93;;;;;;;10.89;100.00;94494.63;5056998;28;20542;-60
2023/03/10 11:15:52;;;;;;;3.87;3.57;;;;;;;10.88;100.00;94500.94;5073962;28;20204;-54
2023/03/10 11:18:42;;;;;;;3.17;2.97;;;;;;;10.95;100.00;94503.97;5071384;28;20214;-54
2023/03/10 11:21:19;;;;;;;2.73;2.53;;;;;;;10.90;100.00;94504.84;5045281;28;20200;-58
2023/03/10 11:23:45;;;;;;;3.00;2.90;;;;;;;10.88;100.00;94512.19;5073730;28;20173;-58
2023/03/10 11:26:32;;;;;;;3.57;3.27;;;;;;;10.83;100.00;94517.50;5073885;28;20184;-57
2023/03/10 11:29:00;;;;;;;3.63;3.43;;;;;;;10.93;100.00;94521.81;5057682;28;20284;-56
2023/03/10 11:31:48;;;;;;;3.80;3.60;;;;;;;10.84;100.00;94530.34;5073428;28;20235;-51
2023/03/10 11:34:22;;;;;;;2.70;2.60;;;;;;;10.89;100.00;94531.31;5055822;28;20243;-55
2023/03/10 11:36:59;;;;;;;3.27;2.97;;;;;;;10.83;100.00;94518.28;5073653;28;20234;-53
2023/03/10 11:39:47;;;;;;;3.40;3.20;;;;;;;10.66;100.00;94538.94;5073422;28;20203;-51